Time;durP1;ratioP1;P1;durP2;ratioP2;P2;SDS_P1;SDS_P2;PMS_P1;PMS_P2;Temp;Humidity;BMP_temperature;BMP_pressure;BME280_temperature;BME280_humidity;BME280_pressure;Samples;Min_cycle;Max_cycle;Signal;HPM_P1;HPM_P2
2022/07/08 00:01:13;;;;;;;0.77;0.77;;;27.20;80.70;;;;;;5103467;28;20461;-66
2022/07/08 00:03:45;;;;;;;0.90;0.90;;;27.40;82.90;;;;;;5121302;28;20453;-66
2022/07/08 00:06:16;;;;;;;0.63;0.63;;;27.40;83.00;;;;;;5103132;28;20584;-66
2022/07/08 00:08:47;;;;;;;1.03;0.93;;;27.10;82.00;;;;;;5103985;28;20497;-66
2022/07/08 00:11:18;;;;;;;0.70;0.70;;;26.90;82.30;;;;;;5105287;28;20443;-66
2022/07/08 00:13:48;;;;;;;1.03;1.03;;;26.90;82.00;;;;;;5122405;28;20457;-66
2022/07/08 00:16:19;;;;;;;0.60;0.60;;;26.80;82.70;;;;;;5123692;28;20468;-66
2022/07/08 00:18:52;;;;;;;0.50;0.50;;;26.70;83.70;;;;;;5124001;28;20467;-65
2022/07/08 00:21:23;;;;;;;0.97;0.97;;;26.80;81.50;;;;;;5122537;28;20522;-66
2022/07/08 00:23:54;;;;;;;0.90;0.87;;;26.80;80.50;;;;;;5122381;28;20846;-65
2022/07/08 00:26:24;;;;;;;0.93;0.93;;;26.80;81.40;;;;;;5122066;28;20654;-66
2022/07/08 00:28:55;;;;;;;0.90;0.90;;;26.90;80.50;;;;;;5123219;27;20491;-66
2022/07/08 00:31:26;;;;;;;1.37;1.27;;;26.90;80.60;;;;;;5122920;28;20460;-65
2022/07/08 00:33:59;;;;;;;0.83;0.83;;;26.90;80.30;;;;;;5123200;28;20459;-66
2022/07/08 00:36:30;;;;;;;0.97;0.97;;;26.60;80.00;;;;;;5122304;28;20452;-65
2022/07/08 00:39:01;;;;;;;0.90;0.90;;;26.30;82.20;;;;;;5123053;28;20436;-65
2022/07/08 00:41:32;;;;;;;1.10;1.00;;;26.00;83.30;;;;;;5121609;28;20993;-65
2022/07/08 00:44:02;;;;;;;0.90;0.90;;;25.80;85.40;;;;;;5123200;28;20508;-65
2022/07/08 00:46:33;;;;;;;1.00;1.00;;;25.80;86.30;;;;;;5122743;28;20527;-65
2022/07/08 00:49:06;;;;;;;0.73;0.73;;;25.80;85.00;;;;;;5123112;28;20486;-65
2022/07/08 00:51:41;;;;;;;1.10;1.00;;;25.70;82.70;;;;;;5114754;28;20466;-65
2022/07/08 00:54:15;;;;;;;0.97;0.90;;;25.60;82.90;;;;;;5122857;28;20566;-65
2022/07/08 00:56:46;;;;;;;1.43;1.33;;;25.60;84.30;;;;;;5122823;28;20794;-67
2022/07/08 00:59:18;;;;;;;1.80;1.70;;;25.50;86.10;;;;;;5123212;28;20476;-65
2022/07/08 01:01:49;;;;;;;1.80;1.27;;;25.30;88.40;;;;;;5122488;28;20451;-65
2022/07/08 01:04:21;;;;;;;1.20;1.10;;;25.00;89.90;;;;;;5122804;28;20452;-65
2022/07/08 01:06:52;;;;;;;1.47;1.17;;;25.00;90.50;;;;;;5110959;28;20482;-65
2022/07/08 01:09:23;;;;;;;1.33;1.10;;;24.90;90.90;;;;;;5122653;28;20466;-66
2022/07/08 01:11:54;;;;;;;1.37;1.27;;;24.90;90.80;;;;;;5122564;28;20450;-65
2022/07/08 01:14:25;;;;;;;1.03;0.93;;;24.90;93.80;;;;;;5122738;28;20518;-65
2022/07/08 01:16:55;;;;;;;1.57;1.47;;;25.00;94.90;;;;;;5122171;28;20461;-65
2022/07/08 01:19:28;;;;;;;1.37;1.27;;;25.00;95.10;;;;;;5122768;28;20485;-65
2022/07/08 01:22:00;;;;;;;1.10;1.10;;;25.10;94.50;;;;;;5116941;28;20460;-65
2022/07/08 01:24:31;;;;;;;1.37;1.27;;;25.00;95.10;;;;;;5122388;28;20447;-66
2022/07/08 01:27:02;;;;;;;1.60;1.50;;;25.10;94.50;;;;;;5121048;28;20444;-65
2022/07/08 01:29:33;;;;;;;1.80;1.40;;;25.00;95.00;;;;;;5122373;28;20485;-65
2022/07/08 01:32:04;;;;;;;2.27;1.30;;;24.80;95.80;;;;;;5122016;28;20458;-65
2022/07/08 01:34:35;;;;;;;1.67;1.57;;;24.70;96.40;;;;;;5122696;28;20454;-65
2022/07/08 01:37:08;;;;;;;1.80;1.70;;;24.70;97.20;;;;;;5113182;28;20920;-65
2022/07/08 01:39:48;;;;;;;1.50;1.40;;;24.70;97.10;;;;;;5121970;28;20438;-65
2022/07/08 01:42:18;;;;;;;1.53;1.43;;;24.80;97.60;;;;;;5121974;28;20466;-65
2022/07/08 01:44:49;;;;;;;1.43;1.33;;;24.80;97.80;;;;;;5122306;28;20457;-65
2022/07/08 01:47:20;;;;;;;1.23;1.13;;;25.00;97.30;;;;;;5121685;28;20469;-65
2022/07/08 01:49:51;;;;;;;1.23;1.13;;;25.10;96.90;;;;;;5122241;28;20489;-65
2022/07/08 01:52:23;;;;;;;1.83;1.40;;;25.00;96.70;;;;;;5120864;28;20475;-66
2022/07/08 01:54:54;;;;;;;1.53;1.43;;;24.90;97.00;;;;;;5122315;28;20542;-66
2022/07/08 01:57:25;;;;;;;1.10;1.00;;;24.80;96.60;;;;;;5121794;28;20442;-65
2022/07/08 01:59:56;;;;;;;1.60;1.50;;;24.70;96.80;;;;;;5122357;28;20910;-65
2022/07/08 02:02:27;;;;;;;1.60;1.50;;;24.60;96.90;;;;;;5121792;28;20495;-65
2022/07/08 02:04:57;;;;;;;1.40;1.30;;;24.50;97.30;;;;;;5121938;28;20451;-65
2022/07/08 02:07:31;;;;;;;1.00;1.00;;;24.30;97.70;;;;;;5121137;28;20508;-66
2022/07/08 02:10:02;;;;;;;1.43;1.33;;;24.10;98.40;;;;;;5121909;28;20922;-65
2022/07/08 02:12:31;;;;;;;1.63;1.20;;;24.00;98.60;;;;;;5109377;28;20443;-65
2022/07/08 02:15:05;;;;;;;1.10;1.10;;;24.00;98.60;;;;;;5122334;28;20438;-65
2022/07/08 02:17:39;;;;;;;1.17;1.07;;;24.00;98.70;;;;;;5121668;28;20557;-65
2022/07/08 02:20:12;;;;;;;1.40;1.23;;;24.00;98.50;;;;;;5120759;28;20450;-65
2022/07/08 02:22:45;;;;;;;1.53;1.43;;;23.90;98.90;;;;;;5121926;28;20460;-66
2022/07/08 02:25:15;;;;;;;1.30;1.20;;;23.90;98.40;;;;;;5121393;28;20442;-66
2022/07/08 02:27:46;;;;;;;1.27;1.20;;;23.90;98.50;;;;;;5122242;28;20505;-66
2022/07/08 02:30:17;;;;;;;1.20;1.10;;;23.80;97.90;;;;;;5121621;28;20517;-65
2022/07/08 02:32:49;;;;;;;2.00;1.20;;;23.70;98.70;;;;;;5121268;28;20456;-65
2022/07/08 02:35:20;;;;;;;1.40;1.30;;;23.60;99.00;;;;;;5120434;28;20470;-65
2022/07/08 02:37:52;;;;;;;1.30;1.20;;;23.50;99.50;;;;;;5123634;28;20460;-65
2022/07/08 02:40:23;;;;;;;1.57;1.47;;;23.50;98.80;;;;;;5125653;28;21028;-65
2022/07/08 02:42:54;;;;;;;1.10;1.10;;;23.40;99.60;;;;;;5100412;28;20520;-65
2022/07/08 02:45:24;;;;;;;1.13;1.03;;;23.30;99.40;;;;;;5123687;28;20464;-65
2022/07/08 02:47:55;;;;;;;1.23;1.13;;;23.20;99.90;;;;;;5098720;28;20549;-65
2022/07/08 02:50:26;;;;;;;1.43;1.33;;;23.10;99.90;;;;;;5124536;28;20853;-65
2022/07/08 02:52:59;;;;;;;1.60;1.50;;;23.00;99.90;;;;;;5124884;28;20481;-65
2022/07/08 02:55:30;;;;;;;1.67;1.20;;;23.00;99.90;;;;;;5125150;28;20514;-65
2022/07/08 02:58:00;;;;;;;1.37;1.27;;;22.90;99.90;;;;;;5124807;28;20453;-65
2022/07/08 03:00:31;;;;;;;1.20;1.10;;;22.80;99.90;;;;;;5125196;28;20458;-65
2022/07/08 03:03:02;;;;;;;1.07;1.07;;;22.80;99.90;;;;;;5124944;28;20441;-65
2022/07/08 03:05:33;;;;;;;0.67;0.67;;;22.70;99.90;;;;;;5123871;28;20458;-65
2022/07/08 03:08:06;;;;;;;1.30;1.20;;;22.60;99.90;;;;;;5125199;28;20514;-66
2022/07/08 03:10:36;;;;;;;1.10;1.00;;;22.60;99.90;;;;;;5125139;28;20481;-65
2022/07/08 03:13:07;;;;;;;2.00;0.70;;;22.60;99.90;;;;;;5125083;28;20477;-65
2022/07/08 03:15:38;;;;;;;1.20;1.20;;;22.50;99.90;;;;;;5124549;28;20461;-65
2022/07/08 03:18:10;;;;;;;0.80;0.80;;;22.50;99.90;;;;;;5124927;28;20578;-65
2022/07/08 03:20:41;;;;;;;0.70;0.70;;;22.50;99.90;;;;;;5123747;28;20454;-65
2022/07/08 03:23:13;;;;;;;0.90;0.90;;;22.40;99.90;;;;;;5124683;28;20456;-65
2022/07/08 03:25:44;;;;;;;0.70;0.70;;;22.30;99.90;;;;;;5124627;28;20544;-65
2022/07/08 03:28:15;;;;;;;0.60;0.60;;;22.30;99.90;;;;;;5110107;28;20511;-65
2022/07/08 03:30:45;;;;;;;0.83;0.80;;;22.30;99.90;;;;;;5123209;28;20584;-65
2022/07/08 03:33:16;;;;;;;0.80;0.80;;;22.20;99.90;;;;;;5117457;28;20578;-65
2022/07/08 03:35:47;;;;;;;0.83;0.73;;;22.10;99.90;;;;;;5123274;28;20450;-65
2022/07/08 03:38:20;;;;;;;0.80;0.80;;;22.00;99.90;;;;;;5124641;28;20742;-65
2022/07/08 03:43:38;;;;;;;1.27;0.70;;;21.80;99.90;;;;;;5124438;28;20621;-64
2022/07/08 03:46:09;;;;;;;0.67;0.67;;;21.70;99.90;;;;;;5124020;28;20460;-65
2022/07/08 03:48:40;;;;;;;0.80;0.80;;;21.70;99.90;;;;;;5123471;28;20843;-65
2022/07/08 03:51:11;;;;;;;0.80;0.50;;;21.70;99.90;;;;;;5123114;28;20898;-65
2022/07/08 03:53:44;;;;;;;0.67;0.67;;;21.70;99.90;;;;;;5124005;28;20461;-65
2022/07/08 03:56:14;;;;;;;0.97;0.87;;;21.50;99.90;;;;;;5123773;28;20468;-64
2022/07/08 03:58:45;;;;;;;0.70;0.50;;;21.50;99.90;;;;;;5124172;28;20516;-65
2022/07/08 04:01:16;;;;;;;0.60;0.60;;;21.50;99.90;;;;;;5123692;28;20460;-65
2022/07/08 04:03:47;;;;;;;0.63;0.60;;;21.40;99.90;;;;;;5123789;28;20454;-65
2022/07/08 04:06:18;;;;;;;1.20;0.70;;;21.40;99.90;;;;;;5122732;28;20445;-65
2022/07/08 04:08:50;;;;;;;0.83;0.77;;;21.40;99.90;;;;;;5123972;28;20537;-65
2022/07/08 04:11:21;;;;;;;1.03;1.00;;;21.30;99.90;;;;;;5118143;28;20489;-64
2022/07/08 04:13:52;;;;;;;0.90;0.70;;;21.20;99.90;;;;;;5119374;28;20454;-65
2022/07/08 04:16:23;;;;;;;0.80;0.80;;;21.10;99.90;;;;;;5123141;28;20431;-65
2022/07/08 04:18:54;;;;;;;0.70;0.70;;;21.00;99.90;;;;;;5123870;27;20636;-65
2022/07/08 04:21:24;;;;;;;0.60;0.60;;;20.90;99.90;;;;;;5122145;28;20421;-65
2022/07/08 04:23:58;;;;;;;0.70;0.60;;;20.80;99.90;;;;;;5123634;28;20446;-65
2022/07/08 04:26:31;;;;;;;0.80;0.80;;;20.80;99.90;;;;;;5123439;28;20561;-65
2022/07/08 04:29:02;;;;;;;0.90;0.90;;;20.70;99.90;;;;;;5122972;28;20442;-65
2022/07/08 04:31:33;;;;;;;0.70;0.70;;;20.70;99.90;;;;;;5122215;28;20486;-65
2022/07/08 04:34:06;;;;;;;0.87;0.70;;;20.70;99.90;;;;;;5122937;28;20464;-65
2022/07/08 04:36:37;;;;;;;0.57;0.50;;;20.60;99.90;;;;;;5122552;28;20952;-64
2022/07/08 04:39:09;;;;;;;0.73;0.73;;;20.50;99.90;;;;;;5122612;28;20421;-65
2022/07/08 04:41:40;;;;;;;0.43;0.43;;;20.50;99.90;;;;;;5118720;28;20446;-65
2022/07/08 04:44:11;;;;;;;0.70;0.67;;;20.40;99.90;;;;;;5099987;28;20445;-64
2022/07/08 04:46:42;;;;;;;1.47;0.90;;;20.40;99.90;;;;;;5122630;28;20506;-65
2022/07/08 04:49:14;;;;;;;0.73;0.73;;;20.40;99.90;;;;;;5122903;28;20476;-65
2022/07/08 04:51:45;;;;;;;1.10;1.10;;;20.40;99.90;;;;;;5122222;28;20495;-65
2022/07/08 04:54:17;;;;;;;0.90;0.90;;;20.40;99.90;;;;;;5122798;28;20481;-65
2022/07/08 04:56:48;;;;;;;0.60;0.60;;;20.40;99.90;;;;;;5122782;28;20488;-65
2022/07/08 04:59:19;;;;;;;0.77;0.70;;;20.20;99.90;;;;;;5121253;28;20464;-65
2022/07/08 05:01:50;;;;;;;0.90;0.90;;;20.20;99.90;;;;;;5122587;28;20427;-65
2022/07/08 05:04:21;;;;;;;1.10;1.00;;;20.20;99.90;;;;;;5117267;28;20457;-65
2022/07/08 05:06:52;;;;;;;0.83;0.83;;;20.20;99.90;;;;;;5122094;28;20529;-65
2022/07/08 05:09:24;;;;;;;0.80;0.80;;;20.20;99.90;;;;;;5122411;28;20784;-65
2022/07/08 05:11:55;;;;;;;0.90;0.90;;;20.10;99.90;;;;;;5122766;28;20469;-65
2022/07/08 05:14:26;;;;;;;0.80;0.80;;;19.90;99.90;;;;;;5122275;28;21266;-65
2022/07/08 05:16:57;;;;;;;0.87;0.87;;;19.80;99.90;;;;;;5122547;28;20420;-65
2022/07/08 05:19:28;;;;;;;1.93;1.20;;;19.80;99.90;;;;;;5122673;28;20425;-65
2022/07/08 05:21:59;;;;;;;0.80;0.80;;;19.80;99.90;;;;;;5121710;28;20492;-65
2022/07/08 05:24:32;;;;;;;1.00;0.90;;;19.70;99.90;;;;;;5122895;28;20466;-64
2022/07/08 05:27:03;;;;;;;0.80;0.80;;;19.60;99.90;;;;;;5121973;28;20485;-64
2022/07/08 05:29:33;;;;;;;1.10;1.00;;;19.50;99.90;;;;;;5122069;28;20421;-64
2022/07/08 05:32:05;;;;;;;1.00;1.00;;;19.50;99.90;;;;;;5110191;28;20467;-65
2022/07/08 05:34:38;;;;;;;0.77;0.77;;;19.50;99.90;;;;;;5121764;28;20454;-65
2022/07/08 05:37:08;;;;;;;0.70;0.70;;;19.40;99.90;;;;;;5121865;28;20450;-65
2022/07/08 05:39:41;;;;;;;0.70;0.70;;;19.30;99.90;;;;;;5122584;28;20479;-65
2022/07/08 05:42:13;;;;;;;0.80;0.80;;;19.30;99.90;;;;;;5115237;28;20431;-65
2022/07/08 05:44:44;;;;;;;0.77;0.77;;;19.30;99.90;;;;;;5122366;28;20426;-66
2022/07/08 05:47:15;;;;;;;0.80;0.80;;;19.20;99.90;;;;;;5122193;28;20508;-64
2022/07/08 05:49:46;;;;;;;0.87;0.87;;;19.20;99.90;;;;;;5122058;28;20457;-64
2022/07/08 05:52:17;;;;;;;0.77;0.77;;;19.10;99.90;;;;;;5121401;28;20475;-64
2022/07/08 05:54:50;;;;;;;1.20;1.10;;;19.10;99.90;;;;;;5121948;28;20412;-64
2022/07/08 05:57:21;;;;;;;1.60;0.90;;;19.00;99.90;;;;;;5097656;28;20454;-65
2022/07/08 05:59:52;;;;;;;0.90;0.90;;;19.00;99.90;;;;;;5122174;28;20431;-65
2022/07/08 06:02:23;;;;;;;1.03;0.87;;;18.90;99.90;;;;;;5122175;28;20431;-64
2022/07/08 06:04:54;;;;;;;0.83;0.83;;;18.90;99.90;;;;;;5096125;28;20565;-65
2022/07/08 06:07:24;;;;;;;0.83;0.83;;;18.90;99.90;;;;;;5121482;28;20413;-65
2022/07/08 06:09:57;;;;;;;0.90;0.90;;;18.80;99.90;;;;;;5121045;28;20465;-64
2022/07/08 06:12:28;;;;;;;0.70;0.70;;;18.80;99.90;;;;;;5123326;28;20600;-64
2022/07/08 06:14:59;;;;;;;1.10;1.00;;;18.80;99.90;;;;;;5126092;28;20513;-65
2022/07/08 06:17:29;;;;;;;0.80;0.80;;;18.80;99.90;;;;;;5126508;28;20457;-64
2022/07/08 06:20:01;;;;;;;0.90;0.90;;;18.80;99.90;;;;;;5124343;28;20547;-65
2022/07/08 06:22:33;;;;;;;0.80;0.77;;;18.80;99.90;;;;;;5107860;28;20438;-65
2022/07/08 06:25:06;;;;;;;1.20;1.10;;;18.80;99.90;;;;;;5125829;28;20436;-64
2022/07/08 06:27:37;;;;;;;0.83;0.83;;;18.80;99.90;;;;;;5126183;28;20454;-64
2022/07/08 06:30:15;;;;;;;3.27;1.10;;;18.80;99.90;;;;;;5095845;28;20447;-65
2022/07/08 06:32:46;;;;;;;0.90;0.90;;;18.80;99.90;;;;;;5125378;28;20460;-65
2022/07/08 06:35:17;;;;;;;0.70;0.70;;;18.80;99.90;;;;;;5124733;28;20439;-65
2022/07/08 06:37:48;;;;;;;0.80;0.80;;;18.80;99.90;;;;;;5125423;28;20849;-64
2022/07/08 06:40:23;;;;;;;0.60;0.60;;;18.70;99.90;;;;;;5125846;28;20442;-64
2022/07/08 06:42:53;;;;;;;0.63;0.63;;;18.70;99.90;;;;;;5126108;28;20431;-64
2022/07/08 06:45:24;;;;;;;1.43;1.17;;;18.70;99.90;;;;;;5125458;28;20560;-64
2022/07/08 06:47:55;;;;;;;1.10;1.00;;;18.80;99.90;;;;;;5125601;28;20471;-64
2022/07/08 06:50:26;;;;;;;0.80;0.80;;;18.80;99.90;;;;;;5124465;28;20565;-63
2022/07/08 06:52:57;;;;;;;1.13;0.80;;;18.80;99.90;;;;;;5125630;28;20481;-63
2022/07/08 06:55:29;;;;;;;0.80;0.80;;;18.80;99.90;;;;;;5125336;28;20513;-64
2022/07/08 06:58:00;;;;;;;1.03;1.00;;;18.80;99.90;;;;;;5125527;28;20464;-63
2022/07/08 07:00:31;;;;;;;0.90;0.90;;;18.70;99.90;;;;;;5124884;27;20437;-63
2022/07/08 07:03:02;;;;;;;0.93;0.90;;;18.60;99.90;;;;;;5121234;28;20518;-63
2022/07/08 07:05:33;;;;;;;1.20;0.80;;;18.60;99.90;;;;;;5117853;28;20449;-63
2022/07/08 07:08:04;;;;;;;1.10;0.80;;;18.60;99.90;;;;;;5125829;28;20491;-63
2022/07/08 07:10:36;;;;;;;0.90;0.80;;;18.60;99.90;;;;;;5125158;27;20851;-63
2022/07/08 07:13:07;;;;;;;0.77;0.77;;;18.60;99.90;;;;;;5092311;28;20485;-64
2022/07/08 07:15:37;;;;;;;0.80;0.80;;;18.60;99.90;;;;;;5125244;28;20536;-63
2022/07/08 07:18:10;;;;;;;1.20;1.10;;;18.60;99.90;;;;;;5125350;28;20428;-65
2022/07/08 07:20:41;;;;;;;0.80;0.80;;;18.60;99.90;;;;;;5124420;27;20417;-64
2022/07/08 07:23:12;;;;;;;1.57;0.80;;;18.50;99.90;;;;;;5096539;28;20444;-63
2022/07/08 07:25:44;;;;;;;0.90;0.90;;;18.50;99.90;;;;;;5125355;28;20931;-64
2022/07/08 07:28:15;;;;;;;0.77;0.77;;;18.50;99.90;;;;;;5125362;28;20567;-64
2022/07/08 07:30:46;;;;;;;0.90;0.90;;;18.50;99.90;;;;;;5124835;28;20431;-64
2022/07/08 07:33:18;;;;;;;0.87;0.87;;;18.50;99.90;;;;;;5106653;28;20517;-63
2022/07/08 07:35:49;;;;;;;0.90;0.90;;;18.50;99.90;;;;;;5123802;28;20442;-63
2022/07/08 07:38:19;;;;;;;0.83;0.77;;;18.30;99.90;;;;;;5125055;28;20540;-63
2022/07/08 07:40:52;;;;;;;0.63;0.60;;;18.30;99.90;;;;;;5124652;27;20453;-64
2022/07/08 07:43:23;;;;;;;1.30;1.20;;;18.30;99.90;;;;;;5124947;28;20420;-63
2022/07/08 07:45:53;;;;;;;0.87;0.83;;;18.30;99.90;;;;;;5124594;28;20416;-63
2022/07/08 07:48:26;;;;;;;0.70;0.70;;;18.20;99.90;;;;;;5124809;28;20513;-63
2022/07/08 07:50:57;;;;;;;0.73;0.73;;;18.10;99.90;;;;;;5123219;28;20470;-64
2022/07/08 07:53:28;;;;;;;1.43;1.13;;;18.00;99.90;;;;;;5097755;28;20460;-63
2022/07/08 07:56:09;;;;;;;0.83;0.67;;;17.90;99.90;;;;;;5124567;28;20533;-63
2022/07/08 07:58:40;;;;;;;0.97;0.97;;;17.90;99.90;;;;;;5110695;28;20421;-64
2022/07/08 08:01:11;;;;;;;0.97;0.87;;;17.90;99.90;;;;;;5104157;28;20431;-64
2022/07/08 08:03:43;;;;;;;1.07;0.80;;;17.90;99.90;;;;;;5104380;28;20461;-63
2022/07/08 08:06:14;;;;;;;1.53;0.80;;;17.80;99.90;;;;;;5114049;28;20454;-64
2022/07/08 08:08:44;;;;;;;1.30;0.97;;;17.80;99.90;;;;;;5104331;28;20446;-64
2022/07/08 08:11:18;;;;;;;0.80;0.80;;;17.80;99.90;;;;;;5123687;28;20454;-64
2022/07/08 08:13:49;;;;;;;1.00;0.80;;;17.70;99.90;;;;;;5123933;28;20456;-63
2022/07/08 08:16:19;;;;;;;0.80;0.73;;;17.60;99.90;;;;;;5124058;28;20438;-63
2022/07/08 08:18:50;;;;;;;0.80;0.80;;;17.60;99.90;;;;;;5124234;28;20557;-64
2022/07/08 08:21:21;;;;;;;1.10;0.80;;;17.60;99.90;;;;;;5122828;28;20468;-63
2022/07/08 08:23:52;;;;;;;0.90;0.90;;;17.50;99.90;;;;;;5124354;28;20464;-64
2022/07/08 08:26:24;;;;;;;1.03;0.93;;;17.50;99.90;;;;;;5123810;28;20480;-63
2022/07/08 08:28:55;;;;;;;0.80;0.80;;;17.40;99.90;;;;;;5123781;28;20449;-63
2022/07/08 08:31:27;;;;;;;0.80;0.80;;;17.30;99.90;;;;;;5118719;28;20520;-63
2022/07/08 08:33:58;;;;;;;1.00;0.90;;;17.30;99.90;;;;;;5122705;28;20485;-65
2022/07/08 08:36:28;;;;;;;0.83;0.83;;;17.20;99.90;;;;;;5122223;28;20476;-64
2022/07/08 08:39:00;;;;;;;0.90;0.90;;;17.20;99.90;;;;;;5123398;28;20498;-65
2022/07/08 08:41:34;;;;;;;0.97;0.90;;;17.20;99.90;;;;;;5091019;28;20456;-65
2022/07/08 08:44:05;;;;;;;0.90;0.90;;;17.20;99.90;;;;;;5123648;28;20553;-65
2022/07/08 08:46:37;;;;;;;0.80;0.80;;;17.20;99.90;;;;;;5123135;28;20938;-64
2022/07/08 08:49:11;;;;;;;1.27;0.90;;;17.30;99.90;;;;;;5123043;28;20424;-63
2022/07/08 08:51:42;;;;;;;0.80;0.80;;;17.20;99.90;;;;;;5122290;28;20430;-63
2022/07/08 08:54:15;;;;;;;0.97;0.70;;;17.20;99.90;;;;;;5116810;28;20493;-63
2022/07/08 08:56:48;;;;;;;0.87;0.87;;;17.20;99.90;;;;;;5122486;28;20469;-63
2022/07/08 08:59:26;;;;;;;1.30;0.90;;;17.10;99.90;;;;;;5122692;28;20449;-63
2022/07/08 09:01:57;;;;;;;1.70;1.20;;;17.10;99.90;;;;;;5122516;28;20449;-64
2022/07/08 09:04:29;;;;;;;0.70;0.57;;;17.10;99.90;;;;;;5122809;28;20446;-64
2022/07/08 09:07:01;;;;;;;1.00;0.70;;;17.10;99.90;;;;;;5122010;28;20526;-64
2022/07/08 09:09:39;;;;;;;0.97;0.87;;;17.00;99.90;;;;;;5123106;28;20484;-64
2022/07/08 09:12:22;;;;;;;0.80;0.80;;;16.90;99.90;;;;;;5123004;28;20477;-63
2022/07/08 09:14:54;;;;;;;0.80;0.80;;;16.90;99.90;;;;;;5122629;28;20503;-64
2022/07/08 09:17:24;;;;;;;1.33;0.70;;;16.80;99.90;;;;;;5122519;28;20464;-64
2022/07/08 09:19:55;;;;;;;0.90;0.90;;;16.80;99.90;;;;;;5122671;28;20521;-64
2022/07/08 09:22:26;;;;;;;0.83;0.83;;;16.70;99.90;;;;;;5121627;28;20567;-64
2022/07/08 09:24:58;;;;;;;1.00;1.00;;;16.70;99.90;;;;;;5122582;28;20509;-64
2022/07/08 09:27:31;;;;;;;1.33;0.83;;;16.60;99.90;;;;;;5122693;28;20777;-64
2022/07/08 09:30:08;;;;;;;0.77;0.77;;;16.60;99.90;;;;;;5121739;28;20458;-64
2022/07/08 09:32:39;;;;;;;0.97;0.97;;;16.50;99.90;;;;;;5090922;28;20503;-64
2022/07/08 09:35:14;;;;;;;1.10;1.00;;;16.50;99.90;;;;;;5121450;28;20493;-64
2022/07/08 09:37:45;;;;;;;1.50;1.07;;;16.50;99.90;;;;;;5122437;28;20516;-64
2022/07/08 09:40:19;;;;;;;1.50;1.40;;;16.50;99.90;;;;;;5121757;28;20911;-63
2022/07/08 09:42:55;;;;;;;1.37;1.27;;;16.50;99.90;;;;;;5123185;28;20437;-64
2022/07/08 09:45:33;;;;;;;1.00;0.90;;;16.50;99.90;;;;;;5122666;28;20771;-64
2022/07/08 09:48:06;;;;;;;1.30;1.13;;;16.40;99.90;;;;;;5125002;28;20792;-64
2022/07/08 09:50:42;;;;;;;1.10;1.00;;;16.40;99.90;;;;;;5093274;28;20445;-63
2022/07/08 09:53:33;;;;;;;1.30;1.20;;;16.40;99.90;;;;;;5125924;28;20494;-64
2022/07/08 09:56:04;;;;;;;1.33;1.10;;;16.30;99.90;;;;;;5126437;28;20434;-64
2022/07/08 09:58:39;;;;;;;0.93;0.83;;;16.40;99.90;;;;;;5126463;28;20509;-64
2022/07/08 10:01:10;;;;;;;1.20;1.00;;;16.50;99.90;;;;;;5126470;28;20419;-64
2022/07/08 10:03:42;;;;;;;1.40;1.13;;;16.60;99.90;;;;;;5126450;28;20584;-63
2022/07/08 10:06:12;;;;;;;0.90;0.90;;;16.60;99.90;;;;;;5125609;28;20537;-63
2022/07/08 10:08:43;;;;;;;1.20;1.10;;;16.70;99.90;;;;;;5092962;28;20460;-64
2022/07/08 10:11:15;;;;;;;1.43;0.80;;;16.80;99.90;;;;;;5125973;28;20450;-64
2022/07/08 10:13:48;;;;;;;2.83;1.10;;;16.80;99.90;;;;;;5126495;28;20475;-64
2022/07/08 10:16:19;;;;;;;1.40;1.10;;;16.90;99.90;;;;;;5126351;28;20460;-64
2022/07/08 10:18:53;;;;;;;1.50;1.40;;;17.00;99.90;;;;;;5093879;28;20453;-64
2022/07/08 10:21:27;;;;;;;0.77;0.77;;;17.00;99.90;;;;;;5125098;28;20831;-64
2022/07/08 10:23:58;;;;;;;0.97;0.97;;;17.00;99.90;;;;;;5126216;28;20428;-64
2022/07/08 10:26:32;;;;;;;0.70;0.70;;;17.10;99.90;;;;;;5125786;28;20535;-64
2022/07/08 10:29:07;;;;;;;0.90;0.90;;;17.10;99.90;;;;;;5125760;28;20484;-64
2022/07/08 10:31:46;;;;;;;0.90;0.90;;;17.20;99.90;;;;;;5107877;28;20467;-64
2022/07/08 10:34:21;;;;;;;1.60;1.50;;;17.20;99.90;;;;;;5126049;28;20495;-64
2022/07/08 10:36:53;;;;;;;1.20;1.10;;;17.20;99.90;;;;;;5124607;28;20449;-64
2022/07/08 10:39:28;;;;;;;1.00;0.90;;;17.30;99.90;;;;;;5125250;28;20584;-63
2022/07/08 10:42:00;;;;;;;0.80;0.80;;;17.30;99.90;;;;;;5124744;28;20424;-64
2022/07/08 10:44:54;;;;;;;1.20;1.10;;;17.30;99.90;;;;;;5125565;28;20468;-63
2022/07/08 10:47:29;;;;;;;1.27;1.00;;;17.30;99.90;;;;;;5125111;28;20416;-63
2022/07/08 10:50:08;;;;;;;0.80;0.77;;;17.30;99.90;;;;;;5125642;28;20416;-64
2022/07/08 10:52:43;;;;;;;0.77;0.77;;;17.30;99.90;;;;;;5122815;28;20545;-63
2022/07/08 10:55:15;;;;;;;0.93;0.83;;;17.30;99.90;;;;;;5121116;28;20579;-64
2022/07/08 10:57:59;;;;;;;1.27;1.17;;;17.30;99.90;;;;;;5093221;28;20542;-64
2022/07/08 11:00:35;;;;;;;1.17;1.07;;;17.30;99.90;;;;;;5124996;28;20841;-64
2022/07/08 11:03:10;;;;;;;0.93;0.87;;;17.30;99.90;;;;;;5124933;28;20565;-64
2022/07/08 11:05:42;;;;;;;0.93;0.87;;;17.30;99.90;;;;;;5124229;28;20541;-64
2022/07/08 11:08:28;;;;;;;1.23;0.97;;;17.40;99.90;;;;;;5125693;28;20962;-63
2022/07/08 11:11:05;;;;;;;1.30;1.20;;;17.40;99.90;;;;;;5124744;28;20438;-64
2022/07/08 11:13:37;;;;;;;0.73;0.73;;;17.40;99.90;;;;;;5124842;27;20552;-64
2022/07/08 11:16:10;;;;;;;1.10;1.00;;;17.40;99.90;;;;;;5125044;28;20455;-64
2022/07/08 11:18:41;;;;;;;0.87;0.87;;;17.50;99.90;;;;;;5125225;27;20449;-64
2022/07/08 11:21:11;;;;;;;0.80;0.80;;;17.40;99.90;;;;;;5104983;28;20459;-64
2022/07/08 11:23:48;;;;;;;1.20;1.10;;;17.40;99.90;;;;;;5125129;28;20457;-64
2022/07/08 11:26:20;;;;;;;1.43;1.20;;;17.40;99.90;;;;;;5125225;28;20473;-64
2022/07/08 11:28:51;;;;;;;0.90;0.70;;;17.40;99.90;;;;;;5125146;28;20922;-64
2022/07/08 11:31:28;;;;;;;0.90;0.77;;;17.50;99.90;;;;;;5123966;28;20451;-64
2022/07/08 11:33:59;;;;;;;0.70;0.70;;;17.50;99.90;;;;;;5124614;28;20445;-64
2022/07/08 11:36:29;;;;;;;0.80;0.80;;;17.50;99.90;;;;;;5123955;28;20516;-64
2022/07/08 11:39:05;;;;;;;1.00;0.90;;;17.50;99.90;;;;;;5124782;28;20426;-64
2022/07/08 11:41:42;;;;;;;1.13;1.03;;;17.50;99.90;;;;;;5124619;28;20437;-64
2022/07/08 11:44:18;;;;;;;1.03;0.90;;;17.50;99.90;;;;;;5122566;28;20766;-64
2022/07/08 11:46:55;;;;;;;1.03;0.87;;;17.60;99.90;;;;;;5100482;28;20449;-64
2022/07/08 11:49:48;;;;;;;1.00;0.90;;;17.70;99.90;;;;;;5123781;28;20442;-64
2022/07/08 11:52:34;;;;;;;1.17;1.07;;;17.60;99.90;;;;;;5103777;28;20469;-64
2022/07/08 11:55:09;;;;;;;0.90;0.90;;;17.50;99.90;;;;;;5113628;28;20517;-64
2022/07/08 11:57:43;;;;;;;0.97;0.87;;;17.50;99.90;;;;;;5124213;28;20442;-64
2022/07/08 12:00:14;;;;;;;1.37;1.27;;;17.50;99.90;;;;;;5123558;28;20449;-64
2022/07/08 12:02:47;;;;;;;0.90;0.90;;;17.40;99.90;;;;;;5124253;28;20460;-64
2022/07/08 12:05:18;;;;;;;1.00;0.83;;;17.20;99.90;;;;;;5123307;28;20454;-63
2022/07/08 12:07:49;;;;;;;1.20;1.00;;;17.20;99.90;;;;;;5124126;28;20469;-64
2022/07/08 12:10:24;;;;;;;1.33;0.97;;;17.10;99.90;;;;;;5122223;28;20428;-63
2022/07/08 12:12:58;;;;;;;1.07;1.03;;;17.00;99.90;;;;;;5119014;28;20428;-63
2022/07/08 12:15:36;;;;;;;1.10;0.90;;;16.90;99.90;;;;;;5107537;28;20444;-65
2022/07/08 12:18:09;;;;;;;1.07;0.97;;;16.90;99.90;;;;;;5124121;28;20535;-64
2022/07/08 12:20:42;;;;;;;1.27;1.17;;;16.90;99.90;;;;;;5123057;28;20438;-64
2022/07/08 12:23:15;;;;;;;1.03;1.00;;;16.90;99.90;;;;;;5123767;28;20928;-64
2022/07/08 12:25:49;;;;;;;1.33;1.20;;;16.90;99.90;;;;;;5123570;28;20432;-64
2022/07/08 12:28:24;;;;;;;1.07;0.97;;;16.90;99.90;;;;;;5123620;28;20520;-64
2022/07/08 12:30:55;;;;;;;2.10;1.33;;;16.90;99.90;;;;;;5118992;28;20449;-64
2022/07/08 12:33:32;;;;;;;3.23;1.10;;;16.90;99.90;;;;;;5120542;28;20477;-64
2022/07/08 12:36:23;;;;;;;1.30;1.20;;;17.00;99.90;;;;;;5122777;28;20466;-64
2022/07/08 12:38:54;;;;;;;1.40;1.30;;;17.10;99.90;;;;;;5122629;28;20764;-64
2022/07/08 12:41:25;;;;;;;1.50;1.40;;;17.10;99.90;;;;;;5108621;28;20450;-64
2022/07/08 12:43:56;;;;;;;1.30;1.17;;;17.10;99.90;;;;;;5120657;28;20435;-64
2022/07/08 12:46:28;;;;;;;1.40;1.13;;;17.20;99.90;;;;;;5123415;28;20453;-64
2022/07/08 12:49:00;;;;;;;1.20;1.10;;;17.20;99.90;;;;;;5123023;28;20437;-64
2022/07/08 12:51:31;;;;;;;1.47;1.37;;;17.20;99.90;;;;;;5122586;28;20480;-64
2022/07/08 12:54:02;;;;;;;1.87;1.60;;;17.30;99.90;;;;;;5122173;28;20485;-64
2022/07/08 12:56:33;;;;;;;1.30;1.07;;;17.30;99.90;;;;;;5122925;28;20495;-64
2022/07/08 12:59:07;;;;;;;1.60;1.20;;;17.30;99.90;;;;;;5123383;28;20803;-64
2022/07/08 13:01:37;;;;;;;1.33;1.20;;;17.40;99.90;;;;;;5122838;28;20424;-64
2022/07/08 13:04:10;;;;;;;2.00;1.00;;;17.40;99.90;;;;;;5122677;28;20506;-64
2022/07/08 13:06:41;;;;;;;1.67;1.27;;;17.40;99.90;;;;;;5121954;28;20780;-64
2022/07/08 13:09:12;;;;;;;1.03;0.80;;;17.40;99.90;;;;;;5122921;28;20449;-64
2022/07/08 13:11:43;;;;;;;2.03;1.60;;;17.50;99.90;;;;;;5122515;28;20460;-64
2022/07/08 13:14:15;;;;;;;1.47;1.37;;;17.50;99.90;;;;;;5123093;28;20460;-64
2022/07/08 13:16:46;;;;;;;2.03;1.17;;;17.60;99.90;;;;;;5122409;28;20580;-65